ADDS METAR Data INFO
IDs: Format: Raw Decoded Include TAF

Data at: 0308 UTC 16 Aug 2018

PATO 160253Z AUTO 4SM -RA BR BKN034 OVC042 11/09 A2998 RMK AO2 RAB06 SLP152 P0001 60001 T01060089 55001 TSNO
PATO 160153Z AUTO VRB06KT 9SM SCT029 OVC036 11/08 A2998 RMK AO2 RAB0057E45 SLP151 P0000 T01110083 TSNO
PATO 160138Z AUTO VRB06G17KT 6SM -RA SCT029 OVC034 11/08 A2998 RMK AO2 RAB0057 P0000 T01110083 TSNO
PATO 160121Z AUTO 14005G15KT 4SM -RA BKN029 OVC034 11/08 A2998 RMK AO2 RAB0057 P0000 T01110083 TSNO
PATO 160053Z AUTO 16008G15KT 7SM SCT026 SCT034 OVC043 12/08 A2998 RMK AO2 SLP152 T01170083 TSNO
PATO 160032Z AUTO VRB06KT 5SM BR SCT028 OVC037 11/09 A2998 RMK AO2 T01110094 TSNO
PATO 160009Z AUTO VRB04KT 10SM BKN026 OVC032 12/08 A2998 RMK AO2 T01170083 TSNO
PATO 152353Z AUTO 11008G18KT 10SM SCT026 OVC034 12/08 A2998 RMK AO2 RAE47 SLP153 P0000 60000 T01170083 10122 20089 51006 TSNO
PATO 152253Z AUTO VRB04KT 5SM -RA BR BKN034 OVC043 12/09 A2998 RMK AO2 RAB2156 SLP152 P0000 T01170094 TSNO
PATO 152153Z AUTO 10005KT 5SM BR FEW014 SCT020 OVC035 12/09 A2998 RMK AO2 RAB05E38 SLP151 P0000 T01170094 TSNO
PATO 152131Z AUTO 12005KT 4SM -RA BR FEW012 BKN028 OVC034 11/10 A2997 RMK AO2 RAB05 P0000 T01110100 TSNO
PATO 152108Z AUTO 00000KT 5SM -RA BR FEW023 OVC032 11/10 A2997 RMK AO2 RAB05 P0000 T01110100 TSNO
PATO 152053Z AUTO VRB04KT 8SM OVC028 11/10 A2997 RMK AO2 SLP147 60000 T01110100 51005 TSNO
PATO 152024Z AUTO 09006KT 10SM FEW024 OVC031 12/10 A2996 RMK AO2 T01170100 TSNO
PATO 151953Z AUTO 10007KT 10SM FEW014 BKN029 OVC035 11/09 A2996 RMK AO2 RAE1858 SLP145 P0000 T01060094 TSNO
PATO 151853Z AUTO 08005KT 3SM -RA BR SCT012 BKN026 OVC036 09/08 A2996 RMK AO2 RAB06 SLP146 P0000 T00940083 TSNO
PATO 151834Z AUTO 11006KT 3SM -RA BR SCT010 BKN021 OVC033 09/08 A2996 RMK AO2 RAB06 P0000 T00940083 TSNO
PATO 151818Z AUTO 10004KT 3SM -RA BR BKN010 BKN021 OVC027 09/08 A2996 RMK AO2 RAB06 P0000 T00890078 TSNO
PATO 151813Z AUTO 10004KT 2 1/2SM -RA BR SCT010 OVC022 09/08 A2996 RMK AO2 RAB06 P0000 T00940083 TSNO
PATO 151753Z AUTO 11005KT 4SM BR FEW010 BKN024 OVC032 09/08 A2995 RMK AO2 RAB07E53 SLP142 P0001 60009 T00890078 10100 20089 53007 TSNO
PATO 151746Z AUTO 10005KT 2 1/2SM -RA BR FEW010 BKN023 OVC032 09/08 A2995 RMK AO2 RAB07 P0001 T00940083 TSNO
PATO 151738Z AUTO 11005KT 3SM -RA BR SCT011 BKN025 OVC031 09/08 A2995 RMK AO2 RAB07 P0001 T00940083 TSNO
PATO 151727Z AUTO 10004KT 2SM -RA BR FEW008 BKN023 OVC031 09/08 A2995 RMK AO2 RAB07 P0001 T00940083 TSNO
PATO 151724Z AUTO 11005KT 1 3/4SM -RA BR FEW005 BKN011 OVC031 09/08 A2995 RMK AO2 RAB07 P0001 T00940083 TSNO
PATO 151713Z AUTO 12004KT 2SM -RA BR FEW005 BKN011 OVC025 09/08 A2995 RMK AO2 RAB07 P0000 T00940083 TSNO
PATO 151706Z AUTO 10006KT 3SM BR FEW005 BKN025 OVC031 09/08 A2995 RMK AO2 T00940083 TSNO
PATO 151653Z AUTO 09005KT 3SM BR FEW008 BKN013 OVC035 09/08 A2995 RMK AO2 RAB1556E15B26E49 SLP140 P0002 T00940083 TSNO
PATO 151650Z AUTO 09005KT 3SM BR FEW007 BKN013 OVC035 09/08 A2995 RMK AO2 RAB1556E15B26E49 P0002 TSNO
PATO 151645Z AUTO 09004KT 2 1/2SM -RA BR FEW010 BKN025 OVC035 09/08 A2994 RMK AO2 RAB1556E15B26 P0002 T00890078 TSNO
PATO 151634Z AUTO 09005KT 2SM -RA BR BKN012 BKN022 OVC028 09/08 A2994 RMK AO2 RAB1556E15B26 P0001 T00940083 TSNO
PATO 151623Z AUTO 10003KT 3SM BR BKN010 BKN016 OVC030 09/09 A2994 RMK AO2 RAB1556E15 P0001 T00940089 TSNO
PATO 151559Z AUTO VRB04KT 2 1/2SM -RA BR FEW009 BKN022 OVC028 10/09 A2994 RMK AO2 RAB56 P0000 T01000089 TSNO
PATO 151553Z AUTO 08004KT 3SM BR BKN018 OVC024 10/09 A2993 RMK AO2 RAE25 SLP136 P0001 T01000089 TSNO
PATO 151453Z AUTO VRB04KT 3SM -RA BR FEW012 BKN022 OVC028 10/09 A2993 RMK AO2 SLP135 P0004 60005 T01000089 53003 TSNO
PATO 151353Z AUTO 09005KT 5SM -RA BR FEW008 FEW016 OVC024 10/08 A2992 RMK AO2 RAB03 SLP132 P0001 T01000083 TSNO
PATO 151308Z AUTO 10004KT 4SM -RA BR FEW012 BKN024 OVC032 09/08 A2992 RMK AO2 RAB03 P0001 T00940083 TSNO
PATO 151253Z AUTO 12004KT 6SM BR SCT008 BKN034 OVC043 09/08 A2992 RMK AO2 RAE1157B39E49 SLP131 P0000 T00890078 TSNO
PATO 151248Z AUTO 12004KT 5SM -RA BR SCT008 BKN028 OVC043 09/08 A2992 RMK AO2 RAE1157B39 P0000 TSNO
PATO 151233Z AUTO 11004KT 4SM BR BKN009 BKN020 OVC025 09/08 A2992 RMK AO2 RAE1157 P0000 T00890078 TSNO
PATO 151225Z AUTO 12004KT 4SM BR SCT009 BKN024 OVC032 09/08 A2992 RMK AO2 RAE1157 P0000 T00890078 TSNO
PATO 151153Z AUTO 09005KT 3SM -RA BR FEW012 SCT016 OVC026 09/08 A2992 RMK AO2 RAB48 SLP131 P0000 60000 T00940083 10106 20094 52003 TSNO
PATO 151053Z AUTO 08006KT 10SM OVC026 10/07 A2991 RMK AO2 SLP130 T01000072 TSNO
PATO 151048Z AUTO 09005KT 10SM FEW008 OVC025 10/08 A2991 RMK AO2 TSNO
PATO 150953Z AUTO 08005KT 10SM OVC028 10/08 A2991 RMK AO2 SLP128 T01000083 TSNO
PATO 150853Z AUTO 10006KT 10SM SCT007 OVC024 10/08 A2991 RMK AO2 SLP126 T01000083 401220072 53009 TSNO
PATO 150842Z AUTO 10007KT 10SM FEW007 BKN024 OVC041 10/08 A2990 RMK AO2 T01000083 TSNO
PATO 150753Z AUTO VRB03KT 10SM OVC026 09/08 A2989 RMK AO2 SLP122 T00940078 TSNO
PATO 150653Z AUTO 09006KT 10SM FEW014 BKN025 OVC034 11/09 A2988 RMK AO2 SLP118 T01060089 TSNO
PATO 150649Z AUTO 09006KT 10SM FEW014 BKN027 OVC034 11/08 A2988 RMK AO2 TSNO
PATO 150553Z AUTO 07004KT 10SM FEW020 OVC032 10/08 A2986 RMK AO2 SLP113 T01000083 10122 20100 53007 TSNO
PATO 150529Z AUTO 07005KT 10SM FEW020 BKN031 OVC043 11/09 A2986 RMK AO2 T01060089 TSNO
PATO 150515Z AUTO 09006KT 10SM BKN029 OVC049 11/09 A2986 RMK AO2 T01110089 TSNO
PATO 150453Z AUTO 09007KT 10SM FEW024 BKN030 OVC049 11/09 A2985 RMK AO2 SLP109 T01110089 TSNO
PATO 150407Z AUTO 11008KT 10SM FEW019 SCT029 OVC055 11/09 A2985 RMK AO2 T01060089 TSNO
PATO 150353Z AUTO 10006KT 10SM SCT017 BKN021 OVC055 11/09 A2985 RMK AO2 SLP107 T01110089 TSNO
PATO 150325Z AUTO 10006KT 10SM BKN019 BKN023 OVC036 11/09 A2985 RMK AO2 T01060089 TSNO
PATO 150253Z AUTO 08006KT 10SM FEW021 OVC048 11/09 A2984 RMK AO2 SLP106 T01110089 53009 TSNO
PATO 150153Z AUTO 07008KT 10SM FEW027 SCT044 OVC055 11/09 A2983 RMK AO2 SLP102 T01110089 TSNO
PATO 150053Z AUTO 10006KT 10SM OVC055 12/09 A2983 RMK AO2 SLP101 T01170094 TSNO
PATO 142353Z AUTO 11008KT 10SM BKN060 OVC070 12/09 A2982 RMK AO2 RAE22 SLP097 P0000 60000 T01170089 10122 20089 51012 TSNO
PATO 142253Z AUTO 10006KT 10SM -RA BKN050 OVC070 12/09 A2981 RMK AO2 RAB42 SLP094 P0000 T01170089 TSNO
PATO 142153Z AUTO 11006KT 10SM OVC060 11/08 A2980 RMK AO2 RAE42 SLP090 P0000 T01110083 TSNO
PATO 142053Z AUTO VRB04KT 10SM -RA BKN050 OVC065 12/09 A2978 RMK AO2 RAB51 SLP085 P0000 60000 T01170089 53011 TSNO
PATO 141953Z AUTO 11004KT 10SM BKN050 OVC065 12/08 A2976 RMK AO2 SLP079 T01170083 TSNO
PATO 141853Z AUTO 13003KT 10SM OVC080 10/07 A2976 RMK AO2 SLP078 T01000067 TSNO
PATO 141753Z AUTO 00000KT 10SM OVC080 09/07 A2975 RMK AO2 SLP074 60000 T00890067 10094 20072 51010 TSNO
PATO 141711Z AUTO 00000KT 10SM FEW012 OVC090 08/06 A2974 RMK AO2 T00830061 TSNO
PATO 141653Z AUTO 00000KT 10SM FEW003 BKN012 OVC090 08/06 A2974 RMK AO2 SLP070 T00830061 TSNO
PATO 141634Z AUTO 11003KT 10SM SCT004 OVC013 08/07 A2974 RMK AO2 T00830072 TSNO
PATO 141553Z AUTO 00000KT 10SM OVC006 08/07 A2973 RMK AO2 SLP068 T00830067 TSNO
PATO 141545Z AUTO 00000KT 10SM OVC005 08/07 A2973 RMK AO2 T00830067 TSNO